Accueil
METAR-TAF:

METAR-TAF

Aéroports :

Aéroport de Saragosse

Saragosse, Espagne

latitude: 41-40N, longitude: 001-01W, altitude: 263 m

Observation

Le bulletin a été fait il y a 38 minutes, à 01:30 UTC
Vent 17 kt de ouest/nord-ouest
Température 7°C
Humidité 61%
Pression 1019 hPa
Visibilité 10 km ou plus
pas de nuages en-dessous de 1500 mètres et pas de cumulonimbus.

METAR: LEZG 240130Z 29017KT CAVOK 07/M00 Q1019

Heure: 04:08 (02:08 UTC)

Prévision

Le bulletin a été fait il y a 3 heures et 8 minutes, à 23:00 UTC
Prévision valable du 24 à 00 UTC au 24 à 24 UTC
Vent 16 kt de ouest/nord-ouest
Visibilité 10 km ou plus
Quelques nuages à une hauteur de 4000 ft
Temporairement
du 24 à 00 UTC au 24 à 18 UTC
Vent 20 kt de ouest/nord-ouest avec des rafales jusqu'à 32 kt

TAF: LEZG 232300Z 2400/2424 30016KT 9999 FEW040 TX18/2414Z TN06/2406Z TEMPO 2400/2418 30020G32KT

Observations et prévisions météorologiques de plus de 4000 aéroports (messages METAR et TAF).

Les stations disponibles sont représentées par des disques jaunes et rouges sur la carte.

Passer la souris dessus pour voir le nom de la station.

Cliquer dessus pour voir les observations et prévisions météorologiques.

Pour changer de carte: cliquez sur les boutons verts avec une croix noire pour zoomer, sur le bouton vert avec un tiret pour effectuer un zoom arrière, ou sur les flèches vertes pour les cartes adjacentes.


METAR-TAF: